• Join FlightAware (Why Join?)
  • Login
  • US Flag 
12:34AM EDT


 

Airport Tracker/Info


-or-


 

Live Flight TrackerFlight Track Log ✈ UAL1254 ✈ 10-Oct-2013 ✈ KICT - KDEN

Flight Track Log - Related Links

Times and Time Zones

All times are in EDT time to prevent confusion due to time zone crossing. See the UAL1254 flight status page for this flight to view local times or setup timezone preferences in your user account.

Time Position Orientation Groundspeed Altitude Reporting Facility
EDT Latitude Longitude Course Direction KTS MPH feet Rate Location/Type
09:30AM 37.6490 -97.4400 293° West 140 161  Level FlightAware
09:31AM 37.6310 -97.4480 199° South 145 167 2,300 4,740 Climbing FlightAware
09:31AM 37.6270 -97.4520 218° Southwest 142 163 2,700 2,220 Climbing FlightAware
09:31AM 37.6240 -97.4580 238° Southwest 160 184 2,900 1,500 Climbing FlightAware
09:31AM 37.6150 -97.4770 239° Southwest 195 224 3,400 1,920 Climbing FlightAware
09:32AM 37.6130 -97.4860 254° West 202 232 3,800 3,000 Climbing FlightAware
09:32AM 37.6120 -97.4910 256° West 207 238 4,000 2,520 Climbing FlightAware
09:32AM 37.6180 -97.5180 286° West 245 282 4,900 2,160 Climbing FlightAware
09:32AM 37.6250 -97.5270 314° West 265 305 5,100 1,740 Climbing FlightAware
09:32AM 37.6340 -97.5340 328° Northwest 276 318 5,400 2,760 Climbing FlightAware
09:33AM 37.6560 -97.5510 329° Northwest 289 333 6,400 3,180 Climbing FlightAware
09:33AM 37.6780 -97.5690 327° Northwest 290 334 7,500 3,540 Climbing FlightAware
09:33AM 37.7040 -97.5890 329° Northwest 289 333 8,900 3,480 Climbing FlightAware
09:34AM 37.7200 -97.6010 329° Northwest 291 335 9,600 3,000 Climbing FlightAware
09:34AM 37.7400 -97.6300 311° West 291 335 10,700 2,880 Climbing FlightAware
09:34AM 37.7480 -97.6510 296° West 290 334 11,400 3,000 Climbing FlightAware
09:34AM 37.7510 -97.6740 279° West 290 334 12,100 2,160 Climbing FlightAware
09:35AM 37.7550 -97.7370 275° West 325 374 13,200 2,340 Climbing FlightAware
09:35AM 37.7600 -97.8010 276° West 335 386 14,800 2,820 Climbing FlightAware
09:36AM 37.7650 -97.8710 275° West 344 396 16,400 2,460 Climbing FlightAware
09:37AM 37.7700 -97.9440 275° West 359 413 17,800 2,640 Climbing FlightAware
09:37AM 37.7750 -98.0210 275° West 361 415 19,600 2,700 Climbing FlightAware
09:38AM 37.7790 -98.0870 274° West 363 418 20,900 2,280 Climbing FlightAware
09:38AM 37.7840 -98.1640 275° West 374 430 22,200 1,980 Climbing FlightAware
09:39AM 37.7890 -98.2460 274° West 386 444 23,300 1,860 Climbing FlightAware
09:40AM 37.7930 -98.3170 274° West 392 451 24,400 1,980 Climbing FlightAware
09:40AM 37.7980 -98.3960 275° West 397 457 25,500 1,860 Climbing FlightAware
09:41AM 37.8040 -98.4830 275° West 400 460 26,700 1,860 Climbing FlightAware
09:41AM 37.8090 -98.5640 274° West 404 465 27,800 1,680 Climbing FlightAware
09:42AM 37.8140 -98.6490 274° West 411 473 28,600 1,380 Climbing FlightAware
09:43AM 37.8190 -98.7340 274° West 414 476 29,500 1,740 Climbing FlightAware
09:43AM 37.8240 -98.8180 274° West 410 472 30,700 1,980 Climbing FlightAware
09:44AM 37.8280 -98.8960 274° West 405 466 31,800 1,800 Climbing FlightAware
09:44AM 37.8330 -98.9800 274° West 402 463 32,800 1,560 Climbing FlightAware
09:45AM 37.8370 -99.0530 274° West 400 460 33,600 1,080 Climbing FlightAware
09:45AM 37.8420 -99.1370 274° West 400 460 34,000 300 Climbing FlightAware
09:46AM 37.8460 -99.2220 273° West 400 460 34,000  Level FlightAware
09:47AM 37.8510 -99.3000 275° West 400 460 34,000  Level FlightAware
09:47AM 37.8550 -99.3910 273° West 398 458 34,000  Level FlightAware
09:48AM 37.8590 -99.4670 274° West 397 457 34,000  Level FlightAware
09:48AM 37.8640 -99.5510 274° West 396 456 34,000  Level FlightAware
09:49AM 37.8680 -99.6330 274° West 396 456 34,000  Level FlightAware
09:50AM 37.8720 -99.7170 273° West 395 455 34,000  Level FlightAware
09:50AM 37.8760 -99.7900 274° West 394 453 34,000  Level FlightAware
09:51AM 37.8800 -99.8770 273° West 393 452 34,000  Level FlightAware
09:51AM 37.8840 -99.9550 274° West 392 451 34,000  Level FlightAware
09:52AM 37.8880 -100.0400 273° West 391 450 34,000  Level FlightAware
09:52AM 37.8920 -100.1130 274° West 390 449 34,000  Level FlightAware
09:53AM 37.8950 -100.1870 273° West 390 449 34,000  Level FlightAware
09:54AM 37.8980 -100.2630 273° West 390 449 34,000  Level FlightAware
09:54AM 37.9010 -100.3330 273° West 390 449 34,000  Level FlightAware
09:55AM 37.9060 -100.4340 274° West 391 450 34,000  Level FlightAware
09:55AM 37.9100 -100.5080 274° West 392 451 34,000  Level FlightAware
09:56AM 37.9130 -100.5930 273° West 393 452 34,000  Level FlightAware
09:57AM 37.9170 -100.6780 273° West 393 452 34,000  Level FlightAware
09:57AM 37.9160 -100.7700 269° West 390 449 34,000  Level FlightAware
09:58AM 37.9120 -100.8450 266° West 390 449 34,000  Level FlightAware
09:58AM 37.9070 -100.9300 266° West 387 445 34,000  Level FlightAware
09:59AM 37.9030 -101.0060 266° West 386 444 34,000  Level FlightAware
10:00AM 37.9060 -101.1150 272° West 394 453 34,000  Level FlightAware
10:00AM 37.9190 -101.1480 297° West 403 464 34,000  Level FlightAware
10:01AM 37.9580 -101.2170 306° West 405 466 34,000  Level FlightAware
10:01AM 37.9930 -101.2820 304° West 404 465 34,000  Level FlightAware
10:02AM 38.0280 -101.3450 305° West 404 465 34,000  Level FlightAware
10:02AM 38.0700 -101.4220 305° West 403 464 34,000  Level FlightAware
10:03AM 38.1020 -101.4810 305° West 404 465 34,000  Level FlightAware
10:04AM 38.1430 -101.5560 305° West 407 468 34,000 -420 Level FlightAware
10:04AM 38.1800 -101.6230 305° West 411 473 33,500 -960 Descending FlightAware
10:05AM 38.2200 -101.6970 305° West 418 481 32,900 -960 Descending FlightAware
10:05AM 38.2560 -101.7630 305° West 423 487 32,400 -840 Descending FlightAware
10:06AM 38.2940 -101.8330 305° West 424 488 32,000 -360 Descending FlightAware
10:06AM 38.3380 -101.9150 304° West 422 486 32,000  Level FlightAware
10:07AM 38.3730 -101.9800 304° West 421 484 32,000  Level FlightAware
10:08AM 38.4110 -102.0510 304° West 421 484 32,000  Level FlightAware
10:08AM 38.4530 -102.1280 305° West 421 484 32,000  Level FlightAware
10:09AM 38.4870 -102.1930 304° West 423 487 32,000  Level FlightAware
10:09AM 38.5270 -102.2660 305° West 424 488 32,000  Level FlightAware
10:10AM 38.5690 -102.3450 304° West 425 489 32,000  Level FlightAware
10:11AM 38.6080 -102.4200 304° West 426 490 32,000  Level FlightAware
10:11AM 38.6310 -102.4630 304° West 425 489 32,000  Level FlightAware
10:12AM 38.6840 -102.5620 304° West 427 491 32,000  Level FlightAware
10:12AM 38.7190 -102.6280 304° West 427 491 32,000  Level FlightAware
10:13AM 38.7600 -102.7060 304° West 426 490 32,000  Level FlightAware
10:13AM 38.7970 -102.7760 304° West 425 489 32,000 -120 Level FlightAware
10:14AM 38.8370 -102.8530 304° West 423 487 31,900 -540 Descending FlightAware
10:15AM 38.8730 -102.9210 304° West 423 487 31,400 -960 Descending FlightAware
10:15AM 38.9140 -103.0000 304° West 430 495 30,800 -1,020 Descending FlightAware
10:16AM 38.9520 -103.0730 304° West 431 496 30,200 -960 Descending FlightAware
10:16AM 38.9910 -103.1480 304° West 432 497 29,700 -1,260 Descending FlightAware
10:17AM 39.0320 -103.2260 304° West 426 490 28,700 -1,920 Descending FlightAware
10:18AM 39.0700 -103.3000 303° West 416 479 27,400 -2,280 Descending FlightAware
10:18AM 39.1020 -103.3630 303° West 409 471 26,200 -2,280 Descending FlightAware
10:19AM 39.1410 -103.4380 304° West 403 464 24,800 -2,280 Descending FlightAware
10:19AM 39.1800 -103.5130 304° West 395 455 23,400 -2,220 Descending FlightAware
10:20AM 39.2120 -103.5760 303° West 389 448 22,300 -2,160 Descending FlightAware
10:20AM 39.2430 -103.6370 303° West 384 442 21,100 -2,160 Descending FlightAware
10:21AM 39.2800 -103.7090 304° West 381 438 19,800 -2,100 Descending FlightAware
10:22AM 39.3170 -103.7820 303° West 380 437 18,500 -2,040 Descending FlightAware
10:22AM 39.3460 -103.8380 304° West 374 430 17,500 -1,200 Descending FlightAware
10:23AM 39.3800 -103.9050 303° West 340 391 17,200 -420 Descending FlightAware
10:23AM 39.4120 -103.9640 305° West 332 382 17,000 -480 Descending FlightAware
10:24AM 39.4450 -104.0170 309° West 329 379 16,700 -960 Descending FlightAware
10:25AM 39.4770 -104.0720 307° West 324 373 15,900 -1,440 Descending FlightAware
10:25AM 39.5070 -104.1200 309° West 319 367 15,100 -1,560 Descending FlightAware
10:26AM 39.5390 -104.1690 310° West 322 371 14,200 -1,620 Descending FlightAware
10:26AM 39.5550 -104.1800 332° Northwest 330 380 13,900 -1,620 Descending FlightAware
10:26AM 39.5730 -104.1850 348° North 336 387 13,600 -1,380 Descending FlightAware
10:27AM 39.6170 -104.1810 North 332 382 13,000 -600 Descending FlightAware
10:27AM 39.6690 -104.1690 10° North 300 345 13,000 -480 Level FlightAware
10:28AM 39.7220 -104.1690 360° North 290 334 12,400 -1,080 Descending FlightAware
10:28AM 39.7690 -104.1770 353° North 287 330 11,700 -1,260 Descending FlightAware
10:29AM 39.8170 -104.1860 352° North 286 329 10,900 -1,320 Descending FlightAware
10:29AM 39.8300 -104.1910 344° North 281 323 10,700 -900 Descending FlightAware
10:29AM 39.8400 -104.2000 325° Northwest 275 316 10,600 -960 Descending FlightAware
10:30AM 39.8750 -104.2370 321° Northwest 264 304 10,000 -900 Descending FlightAware
10:30AM 39.8770 -104.2420 298° West 258 297 10,000 -1,500 Level FlightAware
10:30AM 39.8790 -104.2550 281° West 249 287 9,700 -1,500 Descending FlightAware
10:30AM 39.8750 -104.2830 259° West 242 278 9,300 -1,200 Descending FlightAware
10:31AM 39.8740 -104.2990 265° West 245 282 9,100 -540 Descending FlightAware
10:31AM 39.8750 -104.3360 272° West 245 282 9,000 -180 Descending FlightAware
10:31AM 39.8750 -104.3650 270° West 244 281 9,000 -720 Level FlightAware
10:32AM 39.8750 -104.4000 270° West 247 284 8,500 -1,260 Descending FlightAware
10:32AM 39.8760 -104.4300 272° West 237 273 8,100 -1,200 Descending FlightAware
10:32AM 39.8760 -104.4570 270° West 231 266 7,700 -1,200 Descending FlightAware
10:33AM 39.8760 -104.4880 270° West 216 249 7,300 -1,080 Descending FlightAware
10:33AM 39.8760 -104.5030 270° West 207 238 7,100 -1,020 Descending FlightAware
10:33AM 39.8770 -104.5310 273° West 189 217 6,700 -960 Descending FlightAware
10:34AM 39.8770 -104.5450 270° West 181 208 6,500 -1,020 Descending FlightAware
10:34AM 39.8770 -104.5750 270° West 171 197 6,000 -900 Descending FlightAware
10:34AM 39.8770 -104.5950 270° West 167 192 5,800 -780 Descending FlightAware
10:35AM 39.8770 -104.6130 270° West 163 188 5,500 -420 Descending FlightAware
10:35AM 39.8770 -104.6360 270° West 163 188 5,500  Level FlightAware